sensor_id;sensor_type;location;lat;lon;timestamp;P1;durP1;ratioP1;P2;durP2;ratioP2
17390;SDS011;8813;54.444;18.446;2023-06-22T00:00:18;1.50;;;1.50;;
17390;SDS011;8813;54.444;18.446;2023-06-22T00:02:46;1.50;;;1.50;;
17390;SDS011;8813;54.444;18.446;2023-06-22T00:05:13;1.40;;;1.40;;
17390;SDS011;8813;54.444;18.446;2023-06-22T00:07:42;1.50;;;1.50;;
17390;SDS011;8813;54.444;18.446;2023-06-22T00:10:09;1.80;;;1.80;;
17390;SDS011;8813;54.444;18.446;2023-06-22T00:12:37;1.60;;;1.60;;
17390;SDS011;8813;54.444;18.446;2023-06-22T00:15:06;2.03;;;2.03;;
17390;SDS011;8813;54.444;18.446;2023-06-22T00:17:33;2.40;;;2.30;;
17390;SDS011;8813;54.444;18.446;2023-06-22T00:20:01;1.33;;;1.33;;
17390;SDS011;8813;54.444;18.446;2023-06-22T00:22:31;1.55;;;1.55;;
17390;SDS011;8813;54.444;18.446;2023-06-22T00:25:05;1.50;;;1.50;;
17390;SDS011;8813;54.444;18.446;2023-06-22T00:27:33;1.60;;;1.60;;
17390;SDS011;8813;54.444;18.446;2023-06-22T00:30:01;1.40;;;1.40;;
17390;SDS011;8813;54.444;18.446;2023-06-22T00:32:30;1.35;;;1.35;;
17390;SDS011;8813;54.444;18.446;2023-06-22T00:34:57;1.85;;;1.58;;
17390;SDS011;8813;54.444;18.446;2023-06-22T00:37:25;1.50;;;1.50;;
17390;SDS011;8813;54.444;18.446;2023-06-22T00:39:56;1.60;;;1.60;;
17390;SDS011;8813;54.444;18.446;2023-06-22T00:42:25;18.55;;;2.45;;
17390;SDS011;8813;54.444;18.446;2023-06-22T00:44:52;1.60;;;1.60;;
17390;SDS011;8813;54.444;18.446;2023-06-22T00:47:20;1.83;;;1.83;;
17390;SDS011;8813;54.444;18.446;2023-06-22T00:49:48;3.28;;;1.95;;
17390;SDS011;8813;54.444;18.446;2023-06-22T00:52:17;1.70;;;1.70;;
17390;SDS011;8813;54.444;18.446;2023-06-22T00:54:47;2.05;;;2.05;;
17390;SDS011;8813;54.444;18.446;2023-06-22T00:57:14;2.17;;;2.08;;
17390;SDS011;8813;54.444;18.446;2023-06-22T00:59:43;1.83;;;1.83;;
17390;SDS011;8813;54.444;18.446;2023-06-22T01:02:10;1.70;;;1.70;;
17390;SDS011;8813;54.444;18.446;2023-06-22T01:04:38;1.50;;;1.50;;
17390;SDS011;8813;54.444;18.446;2023-06-22T01:07:08;1.42;;;1.42;;
17390;SDS011;8813;54.444;18.446;2023-06-22T01:09:40;1.58;;;1.58;;
17390;SDS011;8813;54.444;18.446;2023-06-22T01:12:16;2.08;;;1.98;;
17390;SDS011;8813;54.444;18.446;2023-06-22T01:14:47;1.95;;;1.95;;
17390;SDS011;8813;54.444;18.446;2023-06-22T01:17:18;1.40;;;1.40;;
17390;SDS011;8813;54.444;18.446;2023-06-22T01:19:46;1.48;;;1.48;;
17390;SDS011;8813;54.444;18.446;2023-06-22T01:22:17;1.40;;;1.40;;
17390;SDS011;8813;54.444;18.446;2023-06-22T01:24:50;1.75;;;1.75;;
17390;SDS011;8813;54.444;18.446;2023-06-22T01:27:26;1.98;;;1.98;;
17390;SDS011;8813;54.444;18.446;2023-06-22T01:30:00;1.83;;;1.83;;
17390;SDS011;8813;54.444;18.446;2023-06-22T01:32:31;1.95;;;1.95;;
17390;SDS011;8813;54.444;18.446;2023-06-22T01:35:00;1.85;;;1.85;;
17390;SDS011;8813;54.444;18.446;2023-06-22T01:37:28;1.70;;;1.70;;
17390;SDS011;8813;54.444;18.446;2023-06-22T01:39:57;1.92;;;1.92;;
17390;SDS011;8813;54.444;18.446;2023-06-22T01:42:25;1.58;;;1.58;;
17390;SDS011;8813;54.444;18.446;2023-06-22T01:44:52;2.40;;;2.30;;
17390;SDS011;8813;54.444;18.446;2023-06-22T01:47:21;1.70;;;1.70;;
17390;SDS011;8813;54.444;18.446;2023-06-22T01:49:49;1.60;;;1.60;;
17390;SDS011;8813;54.444;18.446;2023-06-22T01:52:16;1.70;;;1.70;;
17390;SDS011;8813;54.444;18.446;2023-06-22T01:54:46;2.22;;;2.22;;
17390;SDS011;8813;54.444;18.446;2023-06-22T01:57:14;1.52;;;1.52;;
17390;SDS011;8813;54.444;18.446;2023-06-22T01:59:43;1.80;;;1.80;;
17390;SDS011;8813;54.444;18.446;2023-06-22T02:02:15;1.60;;;1.60;;
17390;SDS011;8813;54.444;18.446;2023-06-22T02:04:46;1.60;;;1.60;;
17390;SDS011;8813;54.444;18.446;2023-06-22T02:07:15;1.60;;;1.60;;
17390;SDS011;8813;54.444;18.446;2023-06-22T02:09:44;1.70;;;1.70;;
17390;SDS011;8813;54.444;18.446;2023-06-22T02:12:12;1.75;;;1.75;;
17390;SDS011;8813;54.444;18.446;2023-06-22T02:14:40;1.80;;;1.80;;
17390;SDS011;8813;54.444;18.446;2023-06-22T02:17:08;2.28;;;2.17;;
17390;SDS011;8813;54.444;18.446;2023-06-22T02:19:36;1.70;;;1.70;;
17390;SDS011;8813;54.444;18.446;2023-06-22T02:22:05;1.70;;;1.70;;
17390;SDS011;8813;54.444;18.446;2023-06-22T02:24:32;1.70;;;1.70;;
17390;SDS011;8813;54.444;18.446;2023-06-22T02:27:00;2.15;;;2.13;;
17390;SDS011;8813;54.444;18.446;2023-06-22T02:29:27;2.17;;;2.17;;
17390;SDS011;8813;54.444;18.446;2023-06-22T02:31:55;2.30;;;2.30;;
17390;SDS011;8813;54.444;18.446;2023-06-22T02:34:22;3.70;;;3.45;;
17390;SDS011;8813;54.444;18.446;2023-06-22T02:36:49;2.85;;;2.85;;
17390;SDS011;8813;54.444;18.446;2023-06-22T02:39:20;2.60;;;2.60;;
17390;SDS011;8813;54.444;18.446;2023-06-22T02:41:48;2.67;;;2.67;;
17390;SDS011;8813;54.444;18.446;2023-06-22T02:44:15;3.15;;;2.95;;
17390;SDS011;8813;54.444;18.446;2023-06-22T02:46:43;2.80;;;2.75;;
17390;SDS011;8813;54.444;18.446;2023-06-22T02:49:10;2.55;;;2.55;;
17390;SDS011;8813;54.444;18.446;2023-06-22T02:51:38;2.50;;;2.50;;
17390;SDS011;8813;54.444;18.446;2023-06-22T02:54:06;3.83;;;3.72;;
17390;SDS011;8813;54.444;18.446;2023-06-22T02:56:34;3.10;;;3.00;;
17390;SDS011;8813;54.444;18.446;2023-06-22T02:59:02;3.25;;;3.15;;
17390;SDS011;8813;54.444;18.446;2023-06-22T03:01:29;2.90;;;2.83;;
17390;SDS011;8813;54.444;18.446;2023-06-22T03:04:02;5.68;;;3.30;;
17390;SDS011;8813;54.444;18.446;2023-06-22T03:06:29;2.80;;;2.80;;
17390;SDS011;8813;54.444;18.446;2023-06-22T03:08:58;3.58;;;3.47;;
17390;SDS011;8813;54.444;18.446;2023-06-22T03:11:26;9.00;;;3.25;;
17390;SDS011;8813;54.444;18.446;2023-06-22T03:13:55;2.60;;;2.60;;
17390;SDS011;8813;54.444;18.446;2023-06-22T03:16:24;2.47;;;2.47;;
17390;SDS011;8813;54.444;18.446;2023-06-22T03:18:52;2.50;;;2.50;;
17390;SDS011;8813;54.444;18.446;2023-06-22T03:21:21;2.80;;;2.80;;
17390;SDS011;8813;54.444;18.446;2023-06-22T03:23:49;3.13;;;3.03;;
17390;SDS011;8813;54.444;18.446;2023-06-22T03:26:17;2.50;;;2.50;;
17390;SDS011;8813;54.444;18.446;2023-06-22T03:28:45;3.58;;;3.47;;
17390;SDS011;8813;54.444;18.446;2023-06-22T03:31:14;4.97;;;3.03;;
17390;SDS011;8813;54.444;18.446;2023-06-22T03:33:41;3.80;;;3.70;;
17390;SDS011;8813;54.444;18.446;2023-06-22T03:36:08;3.33;;;3.22;;
17390;SDS011;8813;54.444;18.446;2023-06-22T03:38:35;2.88;;;2.85;;
17390;SDS011;8813;54.444;18.446;2023-06-22T03:41:02;2.80;;;2.80;;
17390;SDS011;8813;54.444;18.446;2023-06-22T03:43:28;2.65;;;2.65;;
17390;SDS011;8813;54.444;18.446;2023-06-22T03:45:55;2.92;;;2.92;;
17390;SDS011;8813;54.444;18.446;2023-06-22T03:48:24;2.40;;;2.40;;
17390;SDS011;8813;54.444;18.446;2023-06-22T03:50:51;2.40;;;2.40;;
17390;SDS011;8813;54.444;18.446;2023-06-22T03:53:18;2.10;;;2.10;;
17390;SDS011;8813;54.444;18.446;2023-06-22T03:55:49;2.10;;;2.10;;
17390;SDS011;8813;54.444;18.446;2023-06-22T03:58:17;1.90;;;1.90;;
17390;SDS011;8813;54.444;18.446;2023-06-22T04:00:44;2.88;;;2.78;;
17390;SDS011;8813;54.444;18.446;2023-06-22T04:03:12;2.38;;;2.28;;
17390;SDS011;8813;54.444;18.446;2023-06-22T04:05:41;2.53;;;2.53;;
17390;SDS011;8813;54.444;18.446;2023-06-22T04:08:08;2.60;;;2.58;;
17390;SDS011;8813;54.444;18.446;2023-06-22T04:10:35;2.25;;;2.25;;
17390;SDS011;8813;54.444;18.446;2023-06-22T04:13:02;2.20;;;2.20;;
17390;SDS011;8813;54.444;18.446;2023-06-22T04:15:30;2.00;;;2.00;;
17390;SDS011;8813;54.444;18.446;2023-06-22T04:17:57;2.00;;;2.00;;
17390;SDS011;8813;54.444;18.446;2023-06-22T04:20:24;2.03;;;2.03;;
17390;SDS011;8813;54.444;18.446;2023-06-22T04:22:53;2.22;;;2.13;;
17390;SDS011;8813;54.444;18.446;2023-06-22T04:25:21;2.25;;;2.25;;
17390;SDS011;8813;54.444;18.446;2023-06-22T04:27:49;1.73;;;1.73;;
17390;SDS011;8813;54.444;18.446;2023-06-22T04:30:16;2.95;;;2.83;;
17390;SDS011;8813;54.444;18.446;2023-06-22T04:32:44;2.15;;;2.15;;
17390;SDS011;8813;54.444;18.446;2023-06-22T04:35:21;1.50;;;1.50;;
17390;SDS011;8813;54.444;18.446;2023-06-22T04:37:48;1.90;;;1.90;;
17390;SDS011;8813;54.444;18.446;2023-06-22T04:40:21;2.05;;;2.05;;
17390;SDS011;8813;54.444;18.446;2023-06-22T04:42:49;2.30;;;2.20;;
17390;SDS011;8813;54.444;18.446;2023-06-22T04:45:37;1.83;;;1.83;;
17390;SDS011;8813;54.444;18.446;2023-06-22T04:48:04;1.73;;;1.73;;
17390;SDS011;8813;54.444;18.446;2023-06-22T04:50:34;1.60;;;1.60;;
17390;SDS011;8813;54.444;18.446;2023-06-22T04:53:04;1.70;;;1.70;;
17390;SDS011;8813;54.444;18.446;2023-06-22T04:55:32;1.52;;;1.52;;
17390;SDS011;8813;54.444;18.446;2023-06-22T04:57:59;1.70;;;1.70;;
17390;SDS011;8813;54.444;18.446;2023-06-22T05:00:30;2.00;;;2.00;;
17390;SDS011;8813;54.444;18.446;2023-06-22T05:02:57;1.85;;;1.85;;
17390;SDS011;8813;54.444;18.446;2023-06-22T05:05:24;1.70;;;1.70;;
17390;SDS011;8813;54.444;18.446;2023-06-22T05:07:51;1.40;;;1.40;;
17390;SDS011;8813;54.444;18.446;2023-06-22T05:10:20;1.60;;;1.60;;
17390;SDS011;8813;54.444;18.446;2023-06-22T05:12:48;1.90;;;1.90;;
17390;SDS011;8813;54.444;18.446;2023-06-22T05:15:15;2.55;;;2.45;;
17390;SDS011;8813;54.444;18.446;2023-06-22T05:17:44;1.50;;;1.50;;
17390;SDS011;8813;54.444;18.446;2023-06-22T05:20:11;3.50;;;1.50;;
17390;SDS011;8813;54.444;18.446;2023-06-22T05:22:39;1.40;;;1.40;;
17390;SDS011;8813;54.444;18.446;2023-06-22T05:25:08;1.40;;;1.40;;
17390;SDS011;8813;54.444;18.446;2023-06-22T05:27:36;1.50;;;1.50;;
17390;SDS011;8813;54.444;18.446;2023-06-22T05:30:06;2.92;;;1.67;;
17390;SDS011;8813;54.444;18.446;2023-06-22T05:32:34;1.30;;;1.30;;
17390;SDS011;8813;54.444;18.446;2023-06-22T05:35:01;1.67;;;1.67;;
17390;SDS011;8813;54.444;18.446;2023-06-22T05:37:28;1.55;;;1.55;;
17390;SDS011;8813;54.444;18.446;2023-06-22T05:39:55;1.20;;;1.20;;
17390;SDS011;8813;54.444;18.446;2023-06-22T05:42:22;1.25;;;1.25;;
17390;SDS011;8813;54.444;18.446;2023-06-22T05:44:50;1.10;;;1.10;;
17390;SDS011;8813;54.444;18.446;2023-06-22T05:47:19;1.50;;;1.50;;
17390;SDS011;8813;54.444;18.446;2023-06-22T05:49:48;1.30;;;1.30;;
17390;SDS011;8813;54.444;18.446;2023-06-22T05:52:15;1.30;;;1.30;;
17390;SDS011;8813;54.444;18.446;2023-06-22T05:54:41;1.25;;;1.25;;
17390;SDS011;8813;54.444;18.446;2023-06-22T05:57:08;1.20;;;1.20;;
17390;SDS011;8813;54.444;18.446;2023-06-22T05:59:35;1.17;;;1.17;;
17390;SDS011;8813;54.444;18.446;2023-06-22T06:02:02;1.60;;;1.50;;
17390;SDS011;8813;54.444;18.446;2023-06-22T06:04:31;1.23;;;1.23;;
17390;SDS011;8813;54.444;18.446;2023-06-22T06:06:58;1.48;;;1.48;;
17390;SDS011;8813;54.444;18.446;2023-06-22T06:09:25;1.20;;;1.20;;
17390;SDS011;8813;54.444;18.446;2023-06-22T06:11:52;1.10;;;1.10;;
17390;SDS011;8813;54.444;18.446;2023-06-22T06:14:19;1.10;;;1.10;;
17390;SDS011;8813;54.444;18.446;2023-06-22T06:16:46;1.20;;;1.20;;
17390;SDS011;8813;54.444;18.446;2023-06-22T06:19:13;1.20;;;1.20;;
17390;SDS011;8813;54.444;18.446;2023-06-22T06:21:41;1.20;;;1.20;;
17390;SDS011;8813;54.444;18.446;2023-06-22T06:24:08;1.35;;;1.35;;
17390;SDS011;8813;54.444;18.446;2023-06-22T06:26:35;1.10;;;1.10;;
17390;SDS011;8813;54.444;18.446;2023-06-22T06:29:02;1.20;;;1.20;;
17390;SDS011;8813;54.444;18.446;2023-06-22T06:31:29;0.90;;;0.90;;
17390;SDS011;8813;54.444;18.446;2023-06-22T06:33:56;1.20;;;1.20;;
17390;SDS011;8813;54.444;18.446;2023-06-22T06:36:23;3.17;;;3.00;;
17390;SDS011;8813;54.444;18.446;2023-06-22T06:38:51;1.20;;;1.20;;
17390;SDS011;8813;54.444;18.446;2023-06-22T06:41:18;0.90;;;0.90;;
17390;SDS011;8813;54.444;18.446;2023-06-22T06:43:46;1.20;;;1.20;;
17390;SDS011;8813;54.444;18.446;2023-06-22T06:46:13;1.23;;;1.23;;
17390;SDS011;8813;54.444;18.446;2023-06-22T06:48:40;1.20;;;1.20;;
17390;SDS011;8813;54.444;18.446;2023-06-22T06:51:06;1.05;;;1.05;;
17390;SDS011;8813;54.444;18.446;2023-06-22T06:53:35;1.85;;;1.85;;
17390;SDS011;8813;54.444;18.446;2023-06-22T06:56:03;1.10;;;1.10;;
17390;SDS011;8813;54.444;18.446;2023-06-22T06:58:31;0.90;;;0.90;;
17390;SDS011;8813;54.444;18.446;2023-06-22T07:00:58;1.00;;;1.00;;
17390;SDS011;8813;54.444;18.446;2023-06-22T07:03:25;0.90;;;0.90;;
17390;SDS011;8813;54.444;18.446;2023-06-22T07:05:52;1.88;;;1.73;;
17390;SDS011;8813;54.444;18.446;2023-06-22T07:08:19;1.63;;;1.50;;
17390;SDS011;8813;54.444;18.446;2023-06-22T07:10:46;1.00;;;1.00;;
17390;SDS011;8813;54.444;18.446;2023-06-22T07:13:15;1.17;;;1.17;;
17390;SDS011;8813;54.444;18.446;2023-06-22T07:15:41;1.20;;;1.20;;
17390;SDS011;8813;54.444;18.446;2023-06-22T07:18:08;1.17;;;1.17;;
17390;SDS011;8813;54.444;18.446;2023-06-22T07:20:36;1.15;;;1.15;;
17390;SDS011;8813;54.444;18.446;2023-06-22T07:23:04;1.00;;;1.00;;
17390;SDS011;8813;54.444;18.446;2023-06-22T07:25:31;1.10;;;1.10;;
17390;SDS011;8813;54.444;18.446;2023-06-22T07:27:59;1.20;;;1.20;;
17390;SDS011;8813;54.444;18.446;2023-06-22T07:30:29;1.30;;;1.30;;
17390;SDS011;8813;54.444;18.446;2023-06-22T07:32:57;1.10;;;1.10;;
17390;SDS011;8813;54.444;18.446;2023-06-22T07:35:28;1.00;;;1.00;;
17390;SDS011;8813;54.444;18.446;2023-06-22T07:37:55;1.10;;;1.10;;
17390;SDS011;8813;54.444;18.446;2023-06-22T07:40:22;1.25;;;1.25;;
17390;SDS011;8813;54.444;18.446;2023-06-22T07:42:49;1.20;;;1.20;;
17390;SDS011;8813;54.444;18.446;2023-06-22T07:45:16;1.20;;;1.20;;
17390;SDS011;8813;54.444;18.446;2023-06-22T07:47:45;1.30;;;1.20;;
17390;SDS011;8813;54.444;18.446;2023-06-22T07:50:12;1.25;;;1.25;;
17390;SDS011;8813;54.444;18.446;2023-06-22T07:52:39;1.20;;;1.20;;
17390;SDS011;8813;54.444;18.446;2023-06-22T07:55:06;1.20;;;1.20;;
17390;SDS011;8813;54.444;18.446;2023-06-22T07:57:33;1.20;;;1.20;;
17390;SDS011;8813;54.444;18.446;2023-06-22T08:00:01;1.30;;;1.30;;
17390;SDS011;8813;54.444;18.446;2023-06-22T08:02:36;1.10;;;1.10;;
17390;SDS011;8813;54.444;18.446;2023-06-22T08:05:05;1.20;;;1.20;;
17390;SDS011;8813;54.444;18.446;2023-06-22T08:07:33;1.30;;;1.30;;
17390;SDS011;8813;54.444;18.446;2023-06-22T08:10:00;1.13;;;1.13;;
17390;SDS011;8813;54.444;18.446;2023-06-22T08:12:27;1.00;;;1.00;;
17390;SDS011;8813;54.444;18.446;2023-06-22T08:14:54;1.00;;;1.00;;
17390;SDS011;8813;54.444;18.446;2023-06-22T08:17:22;1.08;;;1.08;;
17390;SDS011;8813;54.444;18.446;2023-06-22T08:19:48;1.00;;;1.00;;
17390;SDS011;8813;54.444;18.446;2023-06-22T08:22:17;1.20;;;1.20;;
17390;SDS011;8813;54.444;18.446;2023-06-22T08:24:44;1.10;;;1.10;;
17390;SDS011;8813;54.444;18.446;2023-06-22T08:27:11;1.20;;;1.20;;
17390;SDS011;8813;54.444;18.446;2023-06-22T08:29:38;1.10;;;1.10;;
17390;SDS011;8813;54.444;18.446;2023-06-22T08:32:07;1.40;;;1.40;;
17390;SDS011;8813;54.444;18.446;2023-06-22T08:34:35;1.40;;;1.40;;
17390;SDS011;8813;54.444;18.446;2023-06-22T08:37:02;2.10;;;2.00;;
17390;SDS011;8813;54.444;18.446;2023-06-22T08:39:32;1.65;;;1.33;;
17390;SDS011;8813;54.444;18.446;2023-06-22T08:41:59;1.13;;;1.13;;
17390;SDS011;8813;54.444;18.446;2023-06-22T08:44:27;1.23;;;1.23;;
17390;SDS011;8813;54.444;18.446;2023-06-22T08:46:53;1.27;;;1.27;;
17390;SDS011;8813;54.444;18.446;2023-06-22T08:49:20;1.30;;;1.30;;
17390;SDS011;8813;54.444;18.446;2023-06-22T08:51:47;1.00;;;1.00;;
17390;SDS011;8813;54.444;18.446;2023-06-22T08:54:17;1.10;;;1.10;;
17390;SDS011;8813;54.444;18.446;2023-06-22T08:56:45;1.10;;;1.10;;
17390;SDS011;8813;54.444;18.446;2023-06-22T08:59:12;1.00;;;1.00;;
17390;SDS011;8813;54.444;18.446;2023-06-22T09:01:39;1.17;;;1.17;;
17390;SDS011;8813;54.444;18.446;2023-06-22T09:04:10;0.93;;;0.93;;
17390;SDS011;8813;54.444;18.446;2023-06-22T09:06:37;1.20;;;1.20;;
17390;SDS011;8813;54.444;18.446;2023-06-22T09:09:10;1.20;;;1.20;;
17390;SDS011;8813;54.444;18.446;2023-06-22T09:11:37;1.30;;;1.30;;
17390;SDS011;8813;54.444;18.446;2023-06-22T09:14:05;1.20;;;1.20;;
17390;SDS011;8813;54.444;18.446;2023-06-22T09:16:32;1.10;;;1.10;;
17390;SDS011;8813;54.444;18.446;2023-06-22T09:19:00;1.20;;;1.20;;
17390;SDS011;8813;54.444;18.446;2023-06-22T09:21:27;1.17;;;1.17;;
17390;SDS011;8813;54.444;18.446;2023-06-22T09:23:54;1.30;;;1.30;;
17390;SDS011;8813;54.444;18.446;2023-06-22T09:26:21;1.25;;;1.25;;
17390;SDS011;8813;54.444;18.446;2023-06-22T09:28:49;1.40;;;1.40;;
17390;SDS011;8813;54.444;18.446;2023-06-22T09:31:17;1.30;;;1.30;;
17390;SDS011;8813;54.444;18.446;2023-06-22T09:33:50;1.08;;;1.08;;
17390;SDS011;8813;54.444;18.446;2023-06-22T09:36:18;2.40;;;2.30;;
17390;SDS011;8813;54.444;18.446;2023-06-22T09:38:45;1.20;;;1.20;;
17390;SDS011;8813;54.444;18.446;2023-06-22T09:41:12;1.67;;;1.67;;
17390;SDS011;8813;54.444;18.446;2023-06-22T09:43:39;1.23;;;1.23;;
17390;SDS011;8813;54.444;18.446;2023-06-22T09:46:06;1.35;;;1.35;;
17390;SDS011;8813;54.444;18.446;2023-06-22T09:48:36;1.73;;;1.63;;
17390;SDS011;8813;54.444;18.446;2023-06-22T09:51:03;1.38;;;1.38;;
17390;SDS011;8813;54.444;18.446;2023-06-22T09:53:29;1.00;;;1.00;;
17390;SDS011;8813;54.444;18.446;2023-06-22T09:55:56;0.90;;;0.90;;
17390;SDS011;8813;54.444;18.446;2023-06-22T09:58:23;1.00;;;1.00;;
17390;SDS011;8813;54.444;18.446;2023-06-22T10:00:50;1.00;;;1.00;;
17390;SDS011;8813;54.444;18.446;2023-06-22T10:03:18;1.05;;;1.05;;
17390;SDS011;8813;54.444;18.446;2023-06-22T10:05:46;1.20;;;1.20;;
17390;SDS011;8813;54.444;18.446;2023-06-22T10:08:13;1.00;;;1.00;;
17390;SDS011;8813;54.444;18.446;2023-06-22T10:10:40;1.08;;;1.08;;
17390;SDS011;8813;54.444;18.446;2023-06-22T10:13:08;0.90;;;0.90;;
17390;SDS011;8813;54.444;18.446;2023-06-22T10:15:36;2.83;;;1.40;;
17390;SDS011;8813;54.444;18.446;2023-06-22T10:18:04;1.00;;;1.00;;
17390;SDS011;8813;54.444;18.446;2023-06-22T10:20:31;1.50;;;1.33;;
17390;SDS011;8813;54.444;18.446;2023-06-22T10:22:59;0.90;;;0.90;;
17390;SDS011;8813;54.444;18.446;2023-06-22T10:25:26;1.00;;;1.00;;
17390;SDS011;8813;54.444;18.446;2023-06-22T10:27:53;1.10;;;1.10;;
17390;SDS011;8813;54.444;18.446;2023-06-22T10:30:20;1.08;;;1.08;;
17390;SDS011;8813;54.444;18.446;2023-06-22T10:32:48;1.00;;;1.00;;
17390;SDS011;8813;54.444;18.446;2023-06-22T10:35:15;1.10;;;1.10;;
17390;SDS011;8813;54.444;18.446;2023-06-22T10:37:42;1.00;;;1.00;;
17390;SDS011;8813;54.444;18.446;2023-06-22T10:40:12;1.00;;;1.00;;
17390;SDS011;8813;54.444;18.446;2023-06-22T10:42:39;1.10;;;1.10;;
17390;SDS011;8813;54.444;18.446;2023-06-22T10:45:06;1.10;;;1.10;;
17390;SDS011;8813;54.444;18.446;2023-06-22T10:47:34;1.10;;;1.10;;
17390;SDS011;8813;54.444;18.446;2023-06-22T10:50:01;1.10;;;1.10;;
17390;SDS011;8813;54.444;18.446;2023-06-22T10:52:28;1.00;;;1.00;;
17390;SDS011;8813;54.444;18.446;2023-06-22T10:54:55;1.00;;;1.00;;
17390;SDS011;8813;54.444;18.446;2023-06-22T10:57:23;1.25;;;1.25;;
17390;SDS011;8813;54.444;18.446;2023-06-22T10:59:50;1.60;;;1.60;;
17390;SDS011;8813;54.444;18.446;2023-06-22T11:02:17;1.23;;;1.23;;
17390;SDS011;8813;54.444;18.446;2023-06-22T11:04:44;1.67;;;1.67;;
17390;SDS011;8813;54.444;18.446;2023-06-22T11:07:11;1.20;;;1.20;;
17390;SDS011;8813;54.444;18.446;2023-06-22T11:09:38;1.63;;;1.63;;
17390;SDS011;8813;54.444;18.446;2023-06-22T11:12:06;1.38;;;1.38;;
17390;SDS011;8813;54.444;18.446;2023-06-22T11:14:35;1.98;;;1.92;;
17390;SDS011;8813;54.444;18.446;2023-06-22T11:17:02;1.30;;;1.30;;
17390;SDS011;8813;54.444;18.446;2023-06-22T11:19:29;1.30;;;1.30;;
17390;SDS011;8813;54.444;18.446;2023-06-22T11:21:56;1.40;;;1.40;;
17390;SDS011;8813;54.444;18.446;2023-06-22T11:24:23;1.85;;;1.85;;
17390;SDS011;8813;54.444;18.446;2023-06-22T11:26:50;1.20;;;1.20;;
17390;SDS011;8813;54.444;18.446;2023-06-22T11:29:16;1.25;;;1.25;;
17390;SDS011;8813;54.444;18.446;2023-06-22T11:31:45;1.17;;;1.17;;
17390;SDS011;8813;54.444;18.446;2023-06-22T11:34:12;1.23;;;1.23;;
17390;SDS011;8813;54.444;18.446;2023-06-22T11:36:39;1.30;;;1.30;;
17390;SDS011;8813;54.444;18.446;2023-06-22T11:39:07;1.30;;;1.30;;
17390;SDS011;8813;54.444;18.446;2023-06-22T11:41:35;1.40;;;1.40;;
17390;SDS011;8813;54.444;18.446;2023-06-22T11:44:02;1.20;;;1.20;;
17390;SDS011;8813;54.444;18.446;2023-06-22T11:46:30;1.20;;;1.20;;
17390;SDS011;8813;54.444;18.446;2023-06-22T11:48:59;1.10;;;1.10;;
17390;SDS011;8813;54.444;18.446;2023-06-22T11:51:27;1.30;;;1.30;;
17390;SDS011;8813;54.444;18.446;2023-06-22T11:53:56;1.50;;;1.50;;
17390;SDS011;8813;54.444;18.446;2023-06-22T11:56:23;1.10;;;1.10;;
17390;SDS011;8813;54.444;18.446;2023-06-22T11:58:50;1.20;;;1.20;;
17390;SDS011;8813;54.444;18.446;2023-06-22T12:01:19;1.20;;;1.20;;
17390;SDS011;8813;54.444;18.446;2023-06-22T12:03:46;1.17;;;1.17;;
17390;SDS011;8813;54.444;18.446;2023-06-22T12:06:14;3.33;;;1.33;;
17390;SDS011;8813;54.444;18.446;2023-06-22T12:08:42;1.30;;;1.30;;
17390;SDS011;8813;54.444;18.446;2023-06-22T12:11:08;1.30;;;1.30;;
17390;SDS011;8813;54.444;18.446;2023-06-22T12:13:35;1.17;;;1.17;;
17390;SDS011;8813;54.444;18.446;2023-06-22T12:16:03;1.20;;;1.20;;
17390;SDS011;8813;54.444;18.446;2023-06-22T12:18:30;1.20;;;1.20;;
17390;SDS011;8813;54.444;18.446;2023-06-22T12:20:57;1.23;;;1.23;;
17390;SDS011;8813;54.444;18.446;2023-06-22T12:23:25;1.10;;;1.10;;
17390;SDS011;8813;54.444;18.446;2023-06-22T12:25:52;1.10;;;1.10;;
17390;SDS011;8813;54.444;18.446;2023-06-22T12:28:19;2.30;;;1.70;;
17390;SDS011;8813;54.444;18.446;2023-06-22T12:30:48;1.17;;;1.17;;
17390;SDS011;8813;54.444;18.446;2023-06-22T12:33:15;1.10;;;1.10;;
17390;SDS011;8813;54.444;18.446;2023-06-22T12:35:43;1.10;;;1.10;;
17390;SDS011;8813;54.444;18.446;2023-06-22T12:38:10;1.50;;;1.50;;
17390;SDS011;8813;54.444;18.446;2023-06-22T12:40:38;1.30;;;1.30;;
17390;SDS011;8813;54.444;18.446;2023-06-22T12:43:05;1.20;;;1.20;;
17390;SDS011;8813;54.444;18.446;2023-06-22T12:45:32;1.20;;;1.20;;
17390;SDS011;8813;54.444;18.446;2023-06-22T12:48:00;1.20;;;1.20;;
17390;SDS011;8813;54.444;18.446;2023-06-22T12:50:27;1.00;;;1.00;;
17390;SDS011;8813;54.444;18.446;2023-06-22T12:52:54;1.00;;;1.00;;
17390;SDS011;8813;54.444;18.446;2023-06-22T12:55:21;0.90;;;0.90;;
17390;SDS011;8813;54.444;18.446;2023-06-22T12:57:49;1.05;;;1.05;;
17390;SDS011;8813;54.444;18.446;2023-06-22T13:00:16;1.00;;;1.00;;
17390;SDS011;8813;54.444;18.446;2023-06-22T13:02:44;1.00;;;1.00;;
17390;SDS011;8813;54.444;18.446;2023-06-22T13:05:12;1.00;;;1.00;;
17390;SDS011;8813;54.444;18.446;2023-06-22T13:07:38;1.00;;;1.00;;
17390;SDS011;8813;54.444;18.446;2023-06-22T13:10:07;1.00;;;1.00;;
17390;SDS011;8813;54.444;18.446;2023-06-22T13:12:34;0.95;;;0.95;;
17390;SDS011;8813;54.444;18.446;2023-06-22T13:15:03;1.00;;;1.00;;
17390;SDS011;8813;54.444;18.446;2023-06-22T13:17:31;1.00;;;1.00;;
17390;SDS011;8813;54.444;18.446;2023-06-22T13:19:58;1.00;;;1.00;;
17390;SDS011;8813;54.444;18.446;2023-06-22T13:22:28;1.00;;;1.00;;
17390;SDS011;8813;54.444;18.446;2023-06-22T13:24:56;1.08;;;1.08;;
17390;SDS011;8813;54.444;18.446;2023-06-22T13:27:24;1.00;;;1.00;;
17390;SDS011;8813;54.444;18.446;2023-06-22T13:29:51;1.00;;;1.00;;
17390;SDS011;8813;54.444;18.446;2023-06-22T13:32:20;1.10;;;1.10;;
17390;SDS011;8813;54.444;18.446;2023-06-22T13:34:46;1.00;;;1.00;;
17390;SDS011;8813;54.444;18.446;2023-06-22T13:37:13;1.10;;;1.10;;
17390;SDS011;8813;54.444;18.446;2023-06-22T13:39:41;1.00;;;1.00;;
17390;SDS011;8813;54.444;18.446;2023-06-22T13:42:08;1.13;;;1.13;;
17390;SDS011;8813;54.444;18.446;2023-06-22T13:44:35;1.00;;;1.00;;
17390;SDS011;8813;54.444;18.446;2023-06-22T13:47:02;1.10;;;1.10;;
17390;SDS011;8813;54.444;18.446;2023-06-22T13:49:31;1.85;;;1.85;;
17390;SDS011;8813;54.444;18.446;2023-06-22T13:51:58;1.10;;;1.10;;
17390;SDS011;8813;54.444;18.446;2023-06-22T13:54:25;1.20;;;1.20;;
17390;SDS011;8813;54.444;18.446;2023-06-22T13:56:52;1.20;;;1.20;;
17390;SDS011;8813;54.444;18.446;2023-06-22T13:59:19;11.88;;;2.58;;
17390;SDS011;8813;54.444;18.446;2023-06-22T14:01:46;1.30;;;1.30;;
17390;SDS011;8813;54.444;18.446;2023-06-22T14:04:14;1.10;;;1.10;;
17390;SDS011;8813;54.444;18.446;2023-06-22T14:06:42;1.50;;;1.50;;
17390;SDS011;8813;54.444;18.446;2023-06-22T14:09:09;1.60;;;1.60;;
17390;SDS011;8813;54.444;18.446;2023-06-22T14:11:36;1.20;;;1.20;;
17390;SDS011;8813;54.444;18.446;2023-06-22T14:14:03;1.10;;;1.10;;
17390;SDS011;8813;54.444;18.446;2023-06-22T14:16:30;1.10;;;1.10;;
17390;SDS011;8813;54.444;18.446;2023-06-22T14:18:57;1.30;;;1.30;;
17390;SDS011;8813;54.444;18.446;2023-06-22T14:21:25;1.40;;;1.40;;
17390;SDS011;8813;54.444;18.446;2023-06-22T14:23:53;7.43;;;1.30;;
17390;SDS011;8813;54.444;18.446;2023-06-22T14:26:20;1.10;;;1.10;;
17390;SDS011;8813;54.444;18.446;2023-06-22T14:28:48;1.30;;;1.30;;
17390;SDS011;8813;54.444;18.446;2023-06-22T14:31:16;1.05;;;1.05;;
17390;SDS011;8813;54.444;18.446;2023-06-22T14:33:45;1.63;;;1.63;;
17390;SDS011;8813;54.444;18.446;2023-06-22T14:36:12;1.10;;;1.10;;
17390;SDS011;8813;54.444;18.446;2023-06-22T14:38:39;1.20;;;1.20;;
17390;SDS011;8813;54.444;18.446;2023-06-22T14:41:07;1.40;;;1.40;;
17390;SDS011;8813;54.444;18.446;2023-06-22T14:43:34;1.10;;;1.10;;
17390;SDS011;8813;54.444;18.446;2023-06-22T14:46:01;0.90;;;0.90;;
17390;SDS011;8813;54.444;18.446;2023-06-22T14:48:28;0.80;;;0.80;;
17390;SDS011;8813;54.444;18.446;2023-06-22T14:50:56;0.80;;;0.80;;